Tampa International Airport Tampa US
ICAO: KTPA
IATA: TPA
Category: Large
Scheduled Services: Yes

Elevation: 26 ft
TransAlt. 18000 ft.

Airport Communications:
APP/DEP:118.15
ATIS:126.45
CLNC DEL:133.6
GND:121.7
TWR:119.5
UNICOM:122.95

KTPA Zoom In..

If you have problems with the map follow the link
https://www.worldairports.se/pages/airport.php?
ICAO=KTPA

Runways:

(A) RW 01L length 11002 ft width 150 ft
ILS 108.90 / hdg 7

(B) RW 01R length 8300 ft width 150 ft
LOC 111.95 / hdg 7

(C) RW 10 length 6999 ft width 150 ft
LOC 111.95 / hdg 97

(D) RW 19L length 8300 ft width 150 ft
ILS 110.30 / hdg 187

(E) RW 19R length 11002 ft width 150 ft
ILS 108.50 / hdg 187

(F) RW 28 length 6999 ft width 150 ft
LOC 111.95 / hdg 277

Location; KTPA
Day. 06 / Time. 11.53 Zulu
* Altimeter: 30.19
* Temperature: 12° c. 53.6°f.
* Wind from: KTP° Speed A kn.
Dewpoint: 07° c.
Visibility: 10 Statute Miles.
Clouds: Few 22000 ft.
Clouds: Scattered 32000 ft.

KTPA 061153Z 00000KT 10SM FEW220 SCT320 12/07 A3019 RMK AO2 SLP222 T01170067 10122 20111 53006 $


Wind From KTP°
Speed A kn.

 
 
jpsmedia worldairports.se 2019   terms of use